createdAt,value
2018-08-06T00:00:34.414Z,48.90
2018-08-06T00:03:01.924Z,48.80
2018-08-06T00:05:29.457Z,48.90
2018-08-06T00:07:57.138Z,48.50
2018-08-06T00:10:25.695Z,48.50
2018-08-06T00:12:55.457Z,48.70
2018-08-06T00:15:23.070Z,48.70
2018-08-06T00:17:50.691Z,48.70
2018-08-06T00:20:18.272Z,48.70
2018-08-06T00:22:45.805Z,48.60
2018-08-06T00:25:14.547Z,48.70
2018-08-06T00:27:42.728Z,48.60
2018-08-06T00:30:13.653Z,48.90
2018-08-06T00:32:42.352Z,49.10
2018-08-06T00:35:10.413Z,49.40
2018-08-06T00:37:38.166Z,49.20
2018-08-06T00:40:10.455Z,49.10
2018-08-06T00:42:38.233Z,49.00
2018-08-06T00:45:07.700Z,49.00
2018-08-06T00:47:35.263Z,49.10
2018-08-06T00:50:02.780Z,49.30
2018-08-06T00:52:30.318Z,49.40
2018-08-06T00:54:57.827Z,49.70
2018-08-06T00:57:25.343Z,49.60
2018-08-06T00:59:52.841Z,49.80
2018-08-06T01:02:20.378Z,49.30
2018-08-06T01:04:47.883Z,49.50
2018-08-06T01:07:15.488Z,49.70
2018-08-06T01:09:42.976Z,50.30
2018-08-06T01:12:10.544Z,50.00
2018-08-06T01:14:38.065Z,49.90
2018-08-06T01:17:05.706Z,50.00
2018-08-06T01:19:33.227Z,50.00
2018-08-06T01:22:00.876Z,50.40
2018-08-06T01:24:28.386Z,50.60
2018-08-06T01:26:55.883Z,50.20
2018-08-06T01:29:23.397Z,50.20
2018-08-06T01:31:50.922Z,50.70
2018-08-06T01:34:18.440Z,50.80
2018-08-06T01:36:45.945Z,50.80
2018-08-06T01:39:13.455Z,50.80
2018-08-06T01:41:41.019Z,50.90
2018-08-06T01:44:08.875Z,50.70
2018-08-06T01:46:36.751Z,50.80
2018-08-06T01:49:04.507Z,51.90
2018-08-06T01:51:32.278Z,51.80
2018-08-06T01:53:59.807Z,52.00
2018-08-06T01:56:27.623Z,51.90
2018-08-06T01:58:55.149Z,51.70
2018-08-06T02:01:22.713Z,52.10
2018-08-06T02:06:17.686Z,52.00
2018-08-06T02:08:45.205Z,52.00
2018-08-06T02:11:12.712Z,51.60
2018-08-06T02:13:40.256Z,51.90
2018-08-06T02:16:07.981Z,52.00
2018-08-06T02:18:35.646Z,52.20
2018-08-06T02:21:03.340Z,52.50
2018-08-06T02:23:30.927Z,52.90
2018-08-06T02:25:58.436Z,52.90
2018-08-06T02:28:26.050Z,53.30
2018-08-06T02:30:53.601Z,53.40
2018-08-06T02:33:21.434Z,53.50
2018-08-06T02:35:49.011Z,53.70
2018-08-06T02:38:16.546Z,53.90
2018-08-06T02:40:44.062Z,54.10
2018-08-06T02:43:11.592Z,53.80
2018-08-06T02:45:39.134Z,53.40
2018-08-06T02:48:06.744Z,53.80
2018-08-06T02:50:34.323Z,54.00
2018-08-06T02:53:01.922Z,54.30
2018-08-06T02:55:29.442Z,54.30
2018-08-06T02:57:57.028Z,54.30
2018-08-06T03:00:24.576Z,54.70
2018-08-06T03:02:52.102Z,54.70
2018-08-06T03:05:19.807Z,54.60
2018-08-06T03:07:47.577Z,54.80
2018-08-06T03:10:15.285Z,54.70
2018-08-06T03:12:44.136Z,55.00
2018-08-06T03:15:12.076Z,55.10
2018-08-06T03:20:08.955Z,55.10
2018-08-06T03:22:37.092Z,55.50
2018-08-06T03:25:05.877Z,55.30
2018-08-06T03:27:33.535Z,55.10
2018-08-06T03:30:01.075Z,55.10
2018-08-06T03:32:28.585Z,55.00
2018-08-06T03:34:56.263Z,55.10
2018-08-06T03:37:25.828Z,55.20
2018-08-06T03:39:53.537Z,55.70
2018-08-06T03:42:21.059Z,55.40
2018-08-06T03:44:48.712Z,55.60
2018-08-06T03:47:16.246Z,55.00
2018-08-06T03:49:43.760Z,55.50
2018-08-06T03:52:11.279Z,55.60
2018-08-06T03:54:38.794Z,55.70
2018-08-06T03:57:06.377Z,55.90
2018-08-06T03:59:33.876Z,55.30
2018-08-06T04:02:01.400Z,55.50
2018-08-06T04:04:28.956Z,55.00
2018-08-06T04:06:56.496Z,55.00
2018-08-06T04:09:24.021Z,55.30
2018-08-06T04:11:51.538Z,55.70
2018-08-06T04:14:19.030Z,55.50
2018-08-06T04:16:46.553Z,55.50
2018-08-06T04:19:14.426Z,55.90
2018-08-06T04:21:41.956Z,56.00
2018-08-06T04:26:38.003Z,56.30
2018-08-06T04:31:33.842Z,56.20
2018-08-06T04:34:01.830Z,56.40
2018-08-06T04:36:31.576Z,56.50
2018-08-06T04:39:06.314Z,56.60
2018-08-06T04:41:33.807Z,56.20
2018-08-06T04:44:01.386Z,56.60
2018-08-06T04:46:28.917Z,56.70
2018-08-06T04:48:56.395Z,56.90
2018-08-06T04:51:23.880Z,57.20
2018-08-06T04:53:51.621Z,57.40
2018-08-06T04:56:19.322Z,57.30
2018-08-06T04:58:46.883Z,57.10
2018-08-06T05:01:14.385Z,56.70
2018-08-06T05:03:41.906Z,56.40
2018-08-06T05:06:09.395Z,56.60
2018-08-06T05:08:36.929Z,56.70
2018-08-06T05:11:04.478Z,56.60
2018-08-06T05:13:32.022Z,56.70
2018-08-06T05:15:59.592Z,57.00
2018-08-06T05:18:27.129Z,56.90
2018-08-06T05:20:54.605Z,56.90
2018-08-06T05:23:31.216Z,57.20
2018-08-06T05:25:58.700Z,57.00
2018-08-06T05:28:26.243Z,57.00
2018-08-06T05:30:53.804Z,57.50
2018-08-06T05:33:21.359Z,57.80
2018-08-06T05:35:48.971Z,57.80
2018-08-06T05:38:16.508Z,57.90
2018-08-06T05:40:44.076Z,57.80
2018-08-06T05:43:11.591Z,57.80
2018-08-06T05:45:39.116Z,57.70
2018-08-06T05:48:06.766Z,57.20
2018-08-06T05:50:34.323Z,57.80
2018-08-06T05:53:01.985Z,58.10
2018-08-06T05:55:29.525Z,58.10
2018-08-06T05:57:57.296Z,58.10
2018-08-06T06:00:25.012Z,58.00
2018-08-06T06:02:52.653Z,58.80
2018-08-06T06:05:20.191Z,58.10
2018-08-06T06:07:47.720Z,57.80
2018-08-06T06:10:15.641Z,57.90
2018-08-06T06:12:43.350Z,57.80
2018-08-06T06:15:14.017Z,58.20
2018-08-06T06:17:42.189Z,58.50
2018-08-06T06:20:09.938Z,58.20
2018-08-06T06:22:37.421Z,58.60
2018-08-06T06:25:07.753Z,57.90
2018-08-06T06:27:35.511Z,57.90
2018-08-06T06:30:03.981Z,58.20
2018-08-06T06:32:31.493Z,58.00
2018-08-06T06:34:58.998Z,57.80
2018-08-06T06:37:26.688Z,57.80
2018-08-06T06:39:54.300Z,57.80
2018-08-06T06:42:21.803Z,57.80
2018-08-06T06:44:49.406Z,57.20
2018-08-06T06:47:16.957Z,57.20
2018-08-06T06:49:44.483Z,58.00
2018-08-06T06:52:12.225Z,58.10
2018-08-06T06:57:07.286Z,58.30
2018-08-06T06:59:34.807Z,58.40
2018-08-06T07:02:02.352Z,58.30
2018-08-06T07:04:29.909Z,57.60
2018-08-06T07:06:57.527Z,56.90
2018-08-06T07:09:25.348Z,57.20
2018-08-06T07:11:52.952Z,57.30
2018-08-06T07:14:20.486Z,57.80
2018-08-06T07:16:48.289Z,57.60
2018-08-06T07:19:16.026Z,57.10
2018-08-06T07:21:43.522Z,57.20
2018-08-06T07:24:11.106Z,56.90
2018-08-06T07:26:38.669Z,57.90
2018-08-06T07:29:06.326Z,57.20
2018-08-06T07:31:34.054Z,57.30
2018-08-06T07:34:02.625Z,56.60
2018-08-06T07:36:30.326Z,56.50
2018-08-06T07:38:57.819Z,56.00
2018-08-06T07:41:25.335Z,56.30
2018-08-06T07:43:52.865Z,55.50
2018-08-06T07:46:20.381Z,55.60
2018-08-06T07:48:47.940Z,55.00
2018-08-06T07:51:15.421Z,53.70
2018-08-06T07:53:42.951Z,53.60
2018-08-06T07:56:10.477Z,53.60
2018-08-06T07:58:38.049Z,53.70
2018-08-06T08:01:05.803Z,52.90
2018-08-06T08:03:33.675Z,53.00
2018-08-06T08:06:01.230Z,52.70
2018-08-06T08:08:28.786Z,53.30
2018-08-06T08:10:56.321Z,52.50
2018-08-06T08:13:26.153Z,52.60
2018-08-06T08:15:54.831Z,50.50
2018-08-06T08:18:22.407Z,49.30
2018-08-06T08:20:50.009Z,50.90
2018-08-06T08:23:17.530Z,50.20
2018-08-06T08:25:45.093Z,51.40
2018-08-06T08:28:12.597Z,50.70
2018-08-06T08:30:40.182Z,51.50
2018-08-06T08:33:07.675Z,50.90
2018-08-06T08:35:35.433Z,48.80
2018-08-06T08:38:03.056Z,50.40
2018-08-06T08:40:30.614Z,50.50
2018-08-06T08:42:58.136Z,50.40
2018-08-06T08:45:25.801Z,50.50
2018-08-06T08:47:53.426Z,50.40
2018-08-06T08:50:20.949Z,49.50
2018-08-06T08:52:48.542Z,49.60
2018-08-06T08:55:17.437Z,50.10
2018-08-06T08:57:45.296Z,48.70
2018-08-06T09:00:18.603Z,48.90
2018-08-06T09:02:47.380Z,47.60
2018-08-06T09:07:43.183Z,48.20
2018-08-06T09:10:12.113Z,47.90
2018-08-06T09:12:40.398Z,47.50
2018-08-06T09:15:16.590Z,46.30
2018-08-06T09:17:44.148Z,46.70
2018-08-06T09:20:12.034Z,46.80
2018-08-06T09:22:40.467Z,44.30
2018-08-06T09:25:08.927Z,46.10
2018-08-06T09:27:36.809Z,45.40
2018-08-06T09:32:34.162Z,44.30
2018-08-06T09:35:01.657Z,43.50
2018-08-06T09:37:29.185Z,45.20
2018-08-06T09:42:24.444Z,44.10
2018-08-06T09:44:52.014Z,43.30
2018-08-06T09:47:19.582Z,41.40
2018-08-06T09:49:47.099Z,41.30
2018-08-06T09:52:14.697Z,40.70
2018-08-06T09:54:42.367Z,41.40
2018-08-06T09:57:09.961Z,41.10
2018-08-06T09:59:37.440Z,40.40
2018-08-06T10:02:05.202Z,38.40
2018-08-06T10:04:32.728Z,37.10
2018-08-06T10:07:00.234Z,37.00
2018-08-06T10:11:55.217Z,34.00
2018-08-06T10:14:22.743Z,34.10
2018-08-06T10:16:50.273Z,33.20
2018-08-06T10:19:17.814Z,32.90
2018-08-06T10:21:45.341Z,31.20
2018-08-06T10:24:12.878Z,31.50
2018-08-06T10:26:40.437Z,30.80
2018-08-06T10:29:07.981Z,30.80
2018-08-06T10:31:35.517Z,30.20
2018-08-06T10:34:03.106Z,30.30
2018-08-06T10:36:30.704Z,30.20
2018-08-06T10:38:58.501Z,29.90
2018-08-06T10:41:26.138Z,30.00
2018-08-06T10:43:53.659Z,31.00
2018-08-06T10:46:21.240Z,30.60
2018-08-06T10:48:48.757Z,30.00
2018-08-06T10:51:16.320Z,29.00
2018-08-06T10:53:44.028Z,29.00
2018-08-06T10:56:11.587Z,29.40
2018-08-06T10:58:39.111Z,28.50
2018-08-06T11:01:06.659Z,28.80
2018-08-06T11:03:34.253Z,28.30
2018-08-06T11:06:01.955Z,28.20
2018-08-06T11:08:29.670Z,27.40
2018-08-06T11:10:57.237Z,27.90
2018-08-06T11:13:24.762Z,28.40
2018-08-06T11:15:52.257Z,27.30
2018-08-06T11:18:19.764Z,27.00
2018-08-06T11:20:47.383Z,27.10
2018-08-06T11:23:15.076Z,26.80
2018-08-06T11:25:42.609Z,27.10
2018-08-06T11:28:10.242Z,25.90
2018-08-06T11:30:37.951Z,26.40
2018-08-06T11:33:05.441Z,26.00
2018-08-06T11:35:33.101Z,26.00
2018-08-06T11:38:00.599Z,25.70
2018-08-06T11:40:28.096Z,27.00
2018-08-06T11:42:55.609Z,28.20
2018-08-06T11:45:23.272Z,27.80
2018-08-06T11:47:50.947Z,27.40
2018-08-06T11:50:18.526Z,28.40
2018-08-06T11:52:46.181Z,28.40
2018-08-06T11:55:13.802Z,26.80
2018-08-06T11:57:41.494Z,27.10
2018-08-06T12:00:15.269Z,27.40
2018-08-06T12:02:43.091Z,26.40
2018-08-06T12:05:10.840Z,27.20
2018-08-06T12:07:38.664Z,26.40
2018-08-06T12:10:08.308Z,26.30
2018-08-06T12:12:35.882Z,27.00
2018-08-06T12:15:04.041Z,26.30
2018-08-06T12:17:31.602Z,27.00
2018-08-06T12:19:59.131Z,27.40
2018-08-06T12:22:26.784Z,28.40
2018-08-06T12:24:54.527Z,27.70
2018-08-06T12:27:22.104Z,27.70
2018-08-06T12:29:49.596Z,27.80
2018-08-06T12:32:17.166Z,29.10
2018-08-06T12:34:44.696Z,27.40
2018-08-06T12:37:12.223Z,27.70
2018-08-06T12:39:40.001Z,27.00
2018-08-06T12:42:07.534Z,27.30
2018-08-06T12:44:35.048Z,26.70
2018-08-06T12:47:02.517Z,27.60
2018-08-06T12:49:30.150Z,28.10
2018-08-06T12:51:57.707Z,28.40
2018-08-06T12:54:25.232Z,28.30
2018-08-06T12:56:53.943Z,28.10
2018-08-06T12:59:21.475Z,27.90
2018-08-06T13:01:48.996Z,27.90
2018-08-06T13:09:11.537Z,28.90
2018-08-06T13:11:39.270Z,28.90
2018-08-06T13:14:07.126Z,28.20
2018-08-06T13:16:34.792Z,27.90
2018-08-06T13:19:02.313Z,27.50
2018-08-06T13:21:30.433Z,27.80
2018-08-06T13:23:57.922Z,28.60
2018-08-06T13:26:25.473Z,29.00
2018-08-06T13:28:53.083Z,28.30
2018-08-06T13:33:48.073Z,30.00
2018-08-06T13:36:15.593Z,28.90
2018-08-06T13:38:43.187Z,28.60
2018-08-06T13:41:10.656Z,27.90
2018-08-06T13:43:38.429Z,28.20
2018-08-06T13:46:06.560Z,28.00
2018-08-06T13:48:34.143Z,28.90
2018-08-06T13:51:01.660Z,29.70
2018-08-06T13:53:29.241Z,30.30
2018-08-06T13:55:56.798Z,29.40
2018-08-06T13:58:24.405Z,28.70
2018-08-06T14:00:51.971Z,30.00
2018-08-06T14:03:19.619Z,29.40
2018-08-06T14:05:55.673Z,30.40
2018-08-06T14:08:23.429Z,30.00
2018-08-06T14:10:50.967Z,29.50
2018-08-06T14:13:18.524Z,30.90
2018-08-06T14:15:46.054Z,30.20
2018-08-06T14:18:13.640Z,30.50
2018-08-06T14:20:41.170Z,29.50
2018-08-06T14:25:36.466Z,29.70
2018-08-06T14:28:04.136Z,29.00
2018-08-06T14:30:31.793Z,29.90
2018-08-06T14:32:59.483Z,30.30
2018-08-06T14:35:27.312Z,29.90
2018-08-06T14:37:55.105Z,29.50
2018-08-06T14:40:22.750Z,30.60
2018-08-06T14:42:54.060Z,29.60
2018-08-06T14:45:22.853Z,30.20
2018-08-06T14:47:50.594Z,30.90
2018-08-06T14:50:19.186Z,30.00
2018-08-06T14:52:46.919Z,30.40
2018-08-06T14:55:14.728Z,30.10
2018-08-06T14:57:42.705Z,30.00
2018-08-06T15:00:20.581Z,30.00
2018-08-06T15:02:49.225Z,30.90
2018-08-06T15:05:16.939Z,29.90
2018-08-06T15:07:44.801Z,30.70
2018-08-06T15:10:13.317Z,30.00
2018-08-06T15:12:41.222Z,30.00
2018-08-06T15:15:11.282Z,29.80
2018-08-06T15:17:38.955Z,29.90
2018-08-06T15:20:10.061Z,30.60
2018-08-06T15:22:37.898Z,31.10
2018-08-06T15:25:08.477Z,31.10
2018-08-06T15:27:35.997Z,31.40
2018-08-06T15:30:05.044Z,32.70
2018-08-06T15:32:32.641Z,31.40
2018-08-06T15:35:00.278Z,30.90
2018-08-06T15:37:27.977Z,32.00
2018-08-06T15:39:56.640Z,30.40
2018-08-06T15:42:24.287Z,31.10
2018-08-06T15:44:51.875Z,31.50
2018-08-06T15:47:19.436Z,31.60
2018-08-06T15:49:47.153Z,32.20
2018-08-06T15:52:14.770Z,33.40
2018-08-06T15:54:42.398Z,32.30
2018-08-06T15:57:09.916Z,31.40
2018-08-06T15:59:37.586Z,31.70
2018-08-06T16:02:05.903Z,33.50
2018-08-06T16:04:33.574Z,33.60
2018-08-06T16:07:01.314Z,32.70
2018-08-06T16:09:29.021Z,33.70
2018-08-06T16:11:56.653Z,32.70
2018-08-06T16:14:25.387Z,33.50
2018-08-06T16:16:53.138Z,32.20
2018-08-06T16:19:20.825Z,32.20
2018-08-06T16:21:48.498Z,32.60
2018-08-06T16:24:16.174Z,32.80
2018-08-06T16:26:44.221Z,33.50
2018-08-06T16:29:11.751Z,34.40
2018-08-06T16:31:39.254Z,32.80
2018-08-06T16:36:34.626Z,35.40
2018-08-06T16:39:02.926Z,34.80
2018-08-06T16:41:30.563Z,32.70
2018-08-06T16:43:58.309Z,34.30
2018-08-06T16:46:25.830Z,35.80
2018-08-06T16:48:53.403Z,34.30
2018-08-06T16:51:21.209Z,33.80
2018-08-06T16:53:48.811Z,36.10
2018-08-06T16:56:16.726Z,36.00
2018-08-06T16:58:44.267Z,37.70
2018-08-06T17:01:11.812Z,39.60
2018-08-06T17:03:39.391Z,40.60
2018-08-06T17:08:34.545Z,41.80
2018-08-06T17:11:02.111Z,41.40
2018-08-06T17:13:29.758Z,42.50
2018-08-06T17:15:57.489Z,43.50
2018-08-06T17:18:25.040Z,43.60
2018-08-06T17:20:52.661Z,43.10
2018-08-06T17:23:20.341Z,44.20
2018-08-06T17:25:48.094Z,44.50
2018-08-06T17:28:17.606Z,44.10
2018-08-06T17:30:45.268Z,44.40
2018-08-06T17:33:12.853Z,45.60
2018-08-06T17:35:40.467Z,45.90
2018-08-06T17:38:07.950Z,45.90
2018-08-06T17:40:35.548Z,45.80
2018-08-06T17:43:03.238Z,44.90
2018-08-06T17:45:30.960Z,46.00
2018-08-06T17:48:00.000Z,45.80
2018-08-06T17:50:27.759Z,47.10
2018-08-06T17:55:23.425Z,47.90
2018-08-06T17:57:52.108Z,47.90
2018-08-06T18:00:20.106Z,47.90
2018-08-06T18:02:47.772Z,48.00
2018-08-06T18:05:16.109Z,47.90
2018-08-06T18:07:44.370Z,47.90
2018-08-06T18:10:13.592Z,48.10
2018-08-06T18:12:41.862Z,48.60
2018-08-06T18:15:09.477Z,48.30
2018-08-06T18:17:37.779Z,49.20
2018-08-06T18:22:34.371Z,48.80
2018-08-06T18:25:01.871Z,48.50
2018-08-06T18:27:29.688Z,48.30
2018-08-06T18:29:57.404Z,48.70
2018-08-06T18:32:25.153Z,49.00
2018-08-06T18:34:52.680Z,49.00
2018-08-06T18:37:20.187Z,49.20
2018-08-06T18:39:47.963Z,49.40
2018-08-06T18:42:15.497Z,49.40
2018-08-06T18:44:43.022Z,49.30
2018-08-06T18:47:10.692Z,49.30
2018-08-06T18:49:38.236Z,49.30
2018-08-06T18:52:08.696Z,49.60
2018-08-06T18:54:36.355Z,49.80
2018-08-06T18:57:03.897Z,50.10
2018-08-06T18:59:31.446Z,49.70
2018-08-06T19:01:58.992Z,49.80
2018-08-06T19:04:26.568Z,49.50
2018-08-06T19:06:54.189Z,49.50
2018-08-06T19:09:21.686Z,49.60
2018-08-06T19:11:49.199Z,49.60
2018-08-06T19:14:24.109Z,49.50
2018-08-06T19:16:52.149Z,49.10
2018-08-06T19:19:24.535Z,48.60
2018-08-06T19:21:52.996Z,47.80
2018-08-06T19:24:27.293Z,47.80
2018-08-06T19:26:54.903Z,48.10
2018-08-06T19:29:22.864Z,47.60
2018-08-06T19:31:50.422Z,47.90
2018-08-06T19:34:18.027Z,47.90
2018-08-06T19:36:51.308Z,47.70
2018-08-06T19:39:18.853Z,48.00
2018-08-06T19:41:46.698Z,48.00
2018-08-06T19:44:14.300Z,48.50
2018-08-06T19:46:42.074Z,48.50
2018-08-06T19:49:15.378Z,48.60
2018-08-06T19:51:43.052Z,48.50
2018-08-06T19:54:10.753Z,47.30
2018-08-06T19:56:38.394Z,47.00
2018-08-06T20:04:01.530Z,46.80
2018-08-06T20:06:29.122Z,46.50
2018-08-06T20:08:56.793Z,46.30
2018-08-06T20:11:24.370Z,46.20
2018-08-06T20:13:52.048Z,46.40
2018-08-06T20:16:19.656Z,46.90
2018-08-06T20:18:47.311Z,48.10
2018-08-06T20:21:14.892Z,48.80
2018-08-06T20:23:42.461Z,48.90
2018-08-06T20:26:10.029Z,49.50
2018-08-06T20:28:37.562Z,48.90
2018-08-06T20:31:05.138Z,48.40
2018-08-06T20:33:32.946Z,45.60
2018-08-06T20:36:00.828Z,45.70
2018-08-06T20:38:28.547Z,45.40
2018-08-06T20:40:56.159Z,45.20
2018-08-06T20:43:23.889Z,44.40
2018-08-06T20:45:51.747Z,43.50
2018-08-06T20:48:19.279Z,43.50
2018-08-06T20:50:47.164Z,43.00
2018-08-06T20:53:14.766Z,43.80
2018-08-06T20:55:42.659Z,44.10
2018-08-06T20:58:10.179Z,43.40
2018-08-06T21:00:38.011Z,43.50
2018-08-06T21:03:06.282Z,43.50
2018-08-06T21:05:33.812Z,42.60
2018-08-06T21:08:01.586Z,43.40
2018-08-06T21:10:29.444Z,43.40
2018-08-06T21:12:57.198Z,43.40
2018-08-06T21:15:25.347Z,43.30
2018-08-06T21:17:52.882Z,43.10
2018-08-06T21:20:20.476Z,42.80
2018-08-06T21:22:48.778Z,42.80
2018-08-06T21:25:16.536Z,43.00
2018-08-06T21:27:45.543Z,42.80
2018-08-06T21:30:15.826Z,43.10
2018-08-06T21:35:14.123Z,44.40
2018-08-06T21:37:41.821Z,44.30
2018-08-06T21:40:09.522Z,43.90
2018-08-06T21:42:37.143Z,44.40
2018-08-06T21:45:04.853Z,44.80
2018-08-06T21:47:32.420Z,45.40
2018-08-06T21:49:59.931Z,45.70
2018-08-06T21:52:27.639Z,45.20
2018-08-06T21:54:55.289Z,45.10
2018-08-06T21:57:22.795Z,43.80
2018-08-06T21:59:50.304Z,43.60
2018-08-06T22:02:17.931Z,43.20
2018-08-06T22:04:45.463Z,44.10
2018-08-06T22:07:12.995Z,44.90
2018-08-06T22:09:40.630Z,45.00
2018-08-06T22:12:08.181Z,45.10
2018-08-06T22:14:35.724Z,44.90
2018-08-06T22:17:03.332Z,44.70
2018-08-06T22:19:30.985Z,45.40
2018-08-06T22:21:58.572Z,46.00
2018-08-06T22:24:26.114Z,46.80
2018-08-06T22:26:53.657Z,46.60
2018-08-06T22:29:21.220Z,46.30
2018-08-06T22:31:48.736Z,46.00
2018-08-06T22:34:16.195Z,46.40
2018-08-06T22:36:43.812Z,46.60
2018-08-06T22:39:11.641Z,46.30
2018-08-06T22:41:39.166Z,45.80
2018-08-06T22:44:06.962Z,46.10
2018-08-06T22:46:34.483Z,46.80
2018-08-06T22:49:01.965Z,46.30
2018-08-06T22:51:30.307Z,46.30
2018-08-06T22:53:57.800Z,46.40
2018-08-06T22:56:25.353Z,46.60
2018-08-06T22:58:52.955Z,46.60
2018-08-06T23:01:20.452Z,46.70
2018-08-06T23:03:47.977Z,46.70
2018-08-06T23:06:15.567Z,46.40
2018-08-06T23:08:43.132Z,45.90
2018-08-06T23:11:10.768Z,46.00
2018-08-06T23:13:38.278Z,45.70
2018-08-06T23:16:05.773Z,45.40
2018-08-06T23:18:33.306Z,45.80
2018-08-06T23:21:00.851Z,45.00
2018-08-06T23:23:28.358Z,45.70
2018-08-06T23:25:55.918Z,45.00
2018-08-06T23:28:23.490Z,44.50
2018-08-06T23:30:51.084Z,44.90
2018-08-06T23:33:18.580Z,45.90
2018-08-06T23:38:13.655Z,46.00
2018-08-06T23:40:41.197Z,46.50
2018-08-06T23:43:08.853Z,45.40
2018-08-06T23:45:36.392Z,44.80
2018-08-06T23:48:04.899Z,45.60
2018-08-06T23:50:32.484Z,45.50
2018-08-06T23:53:00.067Z,45.50
2018-08-06T23:55:27.579Z,45.90
2018-08-06T23:57:55.346Z,45.70
